sensor_id;sensor_type;location;lat;lon;timestamp;P1;durP1;ratioP1;P2;durP2;ratioP2
21820;SDS011;11073;48.586;12.066;2022-07-12T00:00:41;2.30;;;1.50;;
21820;SDS011;11073;48.586;12.066;2022-07-12T00:03:09;1.27;;;1.17;;
21820;SDS011;11073;48.586;12.066;2022-07-12T00:05:38;1.77;;;1.58;;
21820;SDS011;11073;48.586;12.066;2022-07-12T00:08:07;1.52;;;1.42;;
21820;SDS011;11073;48.586;12.066;2022-07-12T00:10:36;1.83;;;1.73;;
21820;SDS011;11073;48.586;12.066;2022-07-12T00:13:05;2.75;;;1.70;;
21820;SDS011;11073;48.586;12.066;2022-07-12T00:15:35;1.60;;;1.50;;
21820;SDS011;11073;48.586;12.066;2022-07-12T00:18:04;1.30;;;1.20;;
21820;SDS011;11073;48.586;12.066;2022-07-12T00:20:33;1.58;;;1.30;;
21820;SDS011;11073;48.586;12.066;2022-07-12T00:23:02;1.60;;;1.50;;
21820;SDS011;11073;48.586;12.066;2022-07-12T00:25:31;1.52;;;1.40;;
21820;SDS011;11073;48.586;12.066;2022-07-12T00:28:00;2.03;;;1.52;;
21820;SDS011;11073;48.586;12.066;2022-07-12T00:30:29;1.92;;;1.70;;
21820;SDS011;11073;48.586;12.066;2022-07-12T00:33:00;1.48;;;1.38;;
21820;SDS011;11073;48.586;12.066;2022-07-12T00:35:29;1.67;;;1.58;;
21820;SDS011;11073;48.586;12.066;2022-07-12T00:37:57;2.00;;;1.60;;
21820;SDS011;11073;48.586;12.066;2022-07-12T00:40:26;2.67;;;1.77;;
21820;SDS011;11073;48.586;12.066;2022-07-12T00:42:55;3.28;;;1.60;;
21820;SDS011;11073;48.586;12.066;2022-07-12T00:45:24;2.05;;;1.70;;
21820;SDS011;11073;48.586;12.066;2022-07-12T00:47:53;3.08;;;1.40;;
21820;SDS011;11073;48.586;12.066;2022-07-12T00:50:23;1.40;;;1.30;;
21820;SDS011;11073;48.586;12.066;2022-07-12T00:52:53;1.67;;;1.58;;
21820;SDS011;11073;48.586;12.066;2022-07-12T00:55:23;1.60;;;1.50;;
21820;SDS011;11073;48.586;12.066;2022-07-12T00:57:52;1.23;;;1.13;;
21820;SDS011;11073;48.586;12.066;2022-07-12T01:00:21;3.80;;;1.45;;
21820;SDS011;11073;48.586;12.066;2022-07-12T01:02:52;2.42;;;1.30;;
21820;SDS011;11073;48.586;12.066;2022-07-12T01:05:23;1.52;;;1.42;;
21820;SDS011;11073;48.586;12.066;2022-07-12T01:07:55;1.90;;;1.63;;
21820;SDS011;11073;48.586;12.066;2022-07-12T01:10:24;1.60;;;1.50;;
21820;SDS011;11073;48.586;12.066;2022-07-12T01:12:53;1.50;;;1.40;;
21820;SDS011;11073;48.586;12.066;2022-07-12T01:15:26;1.75;;;1.65;;
21820;SDS011;11073;48.586;12.066;2022-07-12T01:17:56;3.40;;;1.48;;
21820;SDS011;11073;48.586;12.066;2022-07-12T01:20:27;2.80;;;1.80;;
21820;SDS011;11073;48.586;12.066;2022-07-12T01:22:58;2.47;;;1.50;;
21820;SDS011;11073;48.586;12.066;2022-07-12T01:25:28;2.25;;;1.40;;
21820;SDS011;11073;48.586;12.066;2022-07-12T01:27:57;1.77;;;1.20;;
21820;SDS011;11073;48.586;12.066;2022-07-12T01:30:26;2.55;;;1.75;;
21820;SDS011;11073;48.586;12.066;2022-07-12T01:32:55;2.10;;;1.55;;
21820;SDS011;11073;48.586;12.066;2022-07-12T01:35:24;1.70;;;1.60;;
21820;SDS011;11073;48.586;12.066;2022-07-12T01:37:53;1.85;;;1.58;;
21820;SDS011;11073;48.586;12.066;2022-07-12T01:40:24;1.88;;;1.65;;
21820;SDS011;11073;48.586;12.066;2022-07-12T01:42:53;2.67;;;1.67;;
21820;SDS011;11073;48.586;12.066;2022-07-12T01:45:23;1.77;;;1.23;;
21820;SDS011;11073;48.586;12.066;2022-07-12T01:47:52;1.60;;;1.50;;
21820;SDS011;11073;48.586;12.066;2022-07-12T01:50:21;2.25;;;1.33;;
21820;SDS011;11073;48.586;12.066;2022-07-12T01:52:50;1.67;;;1.58;;
21820;SDS011;11073;48.586;12.066;2022-07-12T01:55:21;3.35;;;1.30;;
21820;SDS011;11073;48.586;12.066;2022-07-12T01:57:52;4.75;;;1.20;;
21820;SDS011;11073;48.586;12.066;2022-07-12T02:00:22;1.35;;;1.25;;
21820;SDS011;11073;48.586;12.066;2022-07-12T02:02:51;2.70;;;1.98;;
21820;SDS011;11073;48.586;12.066;2022-07-12T02:05:20;1.70;;;1.60;;
21820;SDS011;11073;48.586;12.066;2022-07-12T02:07:49;1.88;;;1.42;;
21820;SDS011;11073;48.586;12.066;2022-07-12T02:10:18;2.53;;;1.55;;
21820;SDS011;11073;48.586;12.066;2022-07-12T02:12:47;1.40;;;1.30;;
21820;SDS011;11073;48.586;12.066;2022-07-12T02:15:17;1.30;;;1.20;;
21820;SDS011;11073;48.586;12.066;2022-07-12T02:17:46;1.10;;;1.00;;
21820;SDS011;11073;48.586;12.066;2022-07-12T02:20:15;1.23;;;0.98;;
21820;SDS011;11073;48.586;12.066;2022-07-12T02:22:43;1.30;;;1.20;;
21820;SDS011;11073;48.586;12.066;2022-07-12T02:25:13;1.20;;;1.10;;
21820;SDS011;11073;48.586;12.066;2022-07-12T02:27:42;1.15;;;1.05;;
21820;SDS011;11073;48.586;12.066;2022-07-12T02:30:11;1.50;;;1.00;;
21820;SDS011;11073;48.586;12.066;2022-07-12T02:32:41;1.20;;;1.10;;
21820;SDS011;11073;48.586;12.066;2022-07-12T02:35:10;1.20;;;1.10;;
21820;SDS011;11073;48.586;12.066;2022-07-12T02:37:39;1.10;;;1.00;;
21820;SDS011;11073;48.586;12.066;2022-07-12T02:40:09;1.25;;;0.93;;
21820;SDS011;11073;48.586;12.066;2022-07-12T02:42:55;1.35;;;0.80;;
21820;SDS011;11073;48.586;12.066;2022-07-12T02:45:24;1.75;;;1.30;;
21820;SDS011;11073;48.586;12.066;2022-07-12T02:47:54;2.08;;;1.23;;
21820;SDS011;11073;48.586;12.066;2022-07-12T02:50:23;1.83;;;1.10;;
21820;SDS011;11073;48.586;12.066;2022-07-12T02:52:51;1.30;;;1.20;;
21820;SDS011;11073;48.586;12.066;2022-07-12T02:55:21;2.17;;;0.90;;
21820;SDS011;11073;48.586;12.066;2022-07-12T02:57:50;2.08;;;1.10;;
21820;SDS011;11073;48.586;12.066;2022-07-12T03:00:18;1.85;;;1.15;;
21820;SDS011;11073;48.586;12.066;2022-07-12T03:02:47;2.05;;;0.90;;
21820;SDS011;11073;48.586;12.066;2022-07-12T03:05:20;1.73;;;1.10;;
21820;SDS011;11073;48.586;12.066;2022-07-12T03:07:48;2.20;;;1.10;;
21820;SDS011;11073;48.586;12.066;2022-07-12T03:10:17;2.35;;;1.20;;
21820;SDS011;11073;48.586;12.066;2022-07-12T03:12:46;1.67;;;1.05;;
21820;SDS011;11073;48.586;12.066;2022-07-12T03:15:16;1.55;;;1.20;;
21820;SDS011;11073;48.586;12.066;2022-07-12T03:17:45;1.30;;;1.20;;
21820;SDS011;11073;48.586;12.066;2022-07-12T03:20:14;2.45;;;1.33;;
21820;SDS011;11073;48.586;12.066;2022-07-12T03:22:44;1.85;;;1.35;;
21820;SDS011;11073;48.586;12.066;2022-07-12T03:25:16;2.10;;;1.50;;
21820;SDS011;11073;48.586;12.066;2022-07-12T03:27:45;1.52;;;1.17;;
21820;SDS011;11073;48.586;12.066;2022-07-12T03:30:14;1.42;;;1.10;;
21820;SDS011;11073;48.586;12.066;2022-07-12T03:32:43;2.22;;;1.52;;
21820;SDS011;11073;48.586;12.066;2022-07-12T03:35:12;1.83;;;1.27;;
21820;SDS011;11073;48.586;12.066;2022-07-12T03:37:42;1.63;;;1.52;;
21820;SDS011;11073;48.586;12.066;2022-07-12T03:40:13;1.52;;;1.20;;
21820;SDS011;11073;48.586;12.066;2022-07-12T03:42:43;1.75;;;1.38;;
21820;SDS011;11073;48.586;12.066;2022-07-12T03:45:13;2.35;;;1.02;;
21820;SDS011;11073;48.586;12.066;2022-07-12T03:47:42;1.40;;;1.30;;
21820;SDS011;11073;48.586;12.066;2022-07-12T03:50:12;1.90;;;1.10;;
21820;SDS011;11073;48.586;12.066;2022-07-12T03:52:42;1.77;;;1.20;;
21820;SDS011;11073;48.586;12.066;2022-07-12T03:55:11;2.22;;;1.10;;
21820;SDS011;11073;48.586;12.066;2022-07-12T03:57:42;3.28;;;1.30;;
21820;SDS011;11073;48.586;12.066;2022-07-12T04:00:11;3.63;;;1.25;;
21820;SDS011;11073;48.586;12.066;2022-07-12T04:02:41;1.95;;;1.10;;
21820;SDS011;11073;48.586;12.066;2022-07-12T04:05:11;1.80;;;1.38;;
21820;SDS011;11073;48.586;12.066;2022-07-12T04:07:40;1.75;;;1.27;;
21820;SDS011;11073;48.586;12.066;2022-07-12T04:10:10;1.42;;;1.17;;
21820;SDS011;11073;48.586;12.066;2022-07-12T04:12:40;3.90;;;1.42;;
21820;SDS011;11073;48.586;12.066;2022-07-12T04:15:09;2.65;;;1.50;;
21820;SDS011;11073;48.586;12.066;2022-07-12T04:17:38;1.45;;;1.35;;
21820;SDS011;11073;48.586;12.066;2022-07-12T04:20:07;2.80;;;1.15;;
21820;SDS011;11073;48.586;12.066;2022-07-12T04:22:37;1.83;;;1.42;;
21820;SDS011;11073;48.586;12.066;2022-07-12T04:25:07;1.52;;;1.13;;
21820;SDS011;11073;48.586;12.066;2022-07-12T04:27:37;1.40;;;1.30;;
21820;SDS011;11073;48.586;12.066;2022-07-12T04:30:08;2.42;;;1.25;;
21820;SDS011;11073;48.586;12.066;2022-07-12T04:32:37;1.60;;;1.50;;
21820;SDS011;11073;48.586;12.066;2022-07-12T04:35:06;3.05;;;1.33;;
21820;SDS011;11073;48.586;12.066;2022-07-12T04:37:35;3.53;;;1.42;;
21820;SDS011;11073;48.586;12.066;2022-07-12T04:40:05;1.20;;;1.10;;
21820;SDS011;11073;48.586;12.066;2022-07-12T04:42:34;1.42;;;1.27;;
21820;SDS011;11073;48.586;12.066;2022-07-12T04:45:03;2.70;;;1.50;;
21820;SDS011;11073;48.586;12.066;2022-07-12T04:47:36;1.40;;;1.30;;
21820;SDS011;11073;48.586;12.066;2022-07-12T04:50:05;2.28;;;1.35;;
21820;SDS011;11073;48.586;12.066;2022-07-12T04:52:35;3.28;;;1.50;;
21820;SDS011;11073;48.586;12.066;2022-07-12T04:55:04;2.05;;;1.35;;
21820;SDS011;11073;48.586;12.066;2022-07-12T04:57:33;1.50;;;1.40;;
21820;SDS011;11073;48.586;12.066;2022-07-12T05:00:03;2.13;;;1.75;;
21820;SDS011;11073;48.586;12.066;2022-07-12T05:02:33;2.53;;;1.65;;
21820;SDS011;11073;48.586;12.066;2022-07-12T05:05:04;3.90;;;1.73;;
21820;SDS011;11073;48.586;12.066;2022-07-12T05:07:33;3.15;;;1.60;;
21820;SDS011;11073;48.586;12.066;2022-07-12T05:10:02;1.83;;;1.50;;
21820;SDS011;11073;48.586;12.066;2022-07-12T05:12:31;3.90;;;1.40;;
21820;SDS011;11073;48.586;12.066;2022-07-12T05:15:00;2.25;;;1.95;;
21820;SDS011;11073;48.586;12.066;2022-07-12T05:17:28;3.83;;;1.90;;
21820;SDS011;11073;48.586;12.066;2022-07-12T05:19:58;2.95;;;2.08;;
21820;SDS011;11073;48.586;12.066;2022-07-12T05:22:28;3.13;;;2.05;;
21820;SDS011;11073;48.586;12.066;2022-07-12T05:24:57;2.78;;;1.83;;
21820;SDS011;11073;48.586;12.066;2022-07-12T05:27:26;2.22;;;2.03;;
21820;SDS011;11073;48.586;12.066;2022-07-12T05:29:54;4.72;;;2.03;;
21820;SDS011;11073;48.586;12.066;2022-07-12T05:32:24;3.17;;;1.83;;
21820;SDS011;11073;48.586;12.066;2022-07-12T05:34:53;3.30;;;2.15;;
21820;SDS011;11073;48.586;12.066;2022-07-12T05:37:21;2.15;;;1.60;;
21820;SDS011;11073;48.586;12.066;2022-07-12T05:39:53;2.53;;;2.10;;
21820;SDS011;11073;48.586;12.066;2022-07-12T05:42:22;2.45;;;1.90;;
21820;SDS011;11073;48.586;12.066;2022-07-12T05:44:50;2.10;;;1.80;;
21820;SDS011;11073;48.586;12.066;2022-07-12T05:47:21;3.75;;;2.22;;
21820;SDS011;11073;48.586;12.066;2022-07-12T05:49:50;3.47;;;2.38;;
21820;SDS011;11073;48.586;12.066;2022-07-12T05:52:18;4.30;;;2.30;;
21820;SDS011;11073;48.586;12.066;2022-07-12T05:55:06;3.47;;;2.22;;
21820;SDS011;11073;48.586;12.066;2022-07-12T05:57:35;2.40;;;1.90;;
21820;SDS011;11073;48.586;12.066;2022-07-12T06:00:05;1.85;;;1.70;;
21820;SDS011;11073;48.586;12.066;2022-07-12T06:02:34;2.83;;;1.67;;
21820;SDS011;11073;48.586;12.066;2022-07-12T06:05:04;1.67;;;1.48;;
21820;SDS011;11073;48.586;12.066;2022-07-12T06:07:33;2.00;;;1.80;;
21820;SDS011;11073;48.586;12.066;2022-07-12T06:10:03;1.52;;;1.33;;
21820;SDS011;11073;48.586;12.066;2022-07-12T06:12:33;2.03;;;1.83;;
21820;SDS011;11073;48.586;12.066;2022-07-12T06:15:02;2.88;;;1.48;;
21820;SDS011;11073;48.586;12.066;2022-07-12T06:17:31;3.08;;;1.50;;
21820;SDS011;11073;48.586;12.066;2022-07-12T06:20:01;1.98;;;1.73;;
21820;SDS011;11073;48.586;12.066;2022-07-12T06:22:30;2.83;;;1.65;;
21820;SDS011;11073;48.586;12.066;2022-07-12T06:24:59;2.63;;;1.50;;
21820;SDS011;11073;48.586;12.066;2022-07-12T06:27:49;2.50;;;1.50;;
21820;SDS011;11073;48.586;12.066;2022-07-12T06:30:18;1.63;;;1.52;;
21820;SDS011;11073;48.586;12.066;2022-07-12T06:32:48;1.80;;;1.23;;
21820;SDS011;11073;48.586;12.066;2022-07-12T06:35:17;3.03;;;1.50;;
21820;SDS011;11073;48.586;12.066;2022-07-12T06:37:46;2.15;;;1.50;;
21820;SDS011;11073;48.586;12.066;2022-07-12T06:40:15;1.48;;;1.35;;
21820;SDS011;11073;48.586;12.066;2022-07-12T06:42:44;2.22;;;1.00;;
21820;SDS011;11073;48.586;12.066;2022-07-12T06:45:14;1.73;;;1.13;;
21820;SDS011;11073;48.586;12.066;2022-07-12T06:47:43;1.30;;;1.17;;
21820;SDS011;11073;48.586;12.066;2022-07-12T06:50:12;1.70;;;1.45;;
21820;SDS011;11073;48.586;12.066;2022-07-12T06:52:41;2.95;;;1.27;;
21820;SDS011;11073;48.586;12.066;2022-07-12T06:55:10;1.88;;;1.25;;
21820;SDS011;11073;48.586;12.066;2022-07-12T06:57:38;2.72;;;1.65;;
21820;SDS011;11073;48.586;12.066;2022-07-12T07:00:07;2.10;;;1.63;;
21820;SDS011;11073;48.586;12.066;2022-07-12T07:02:38;1.88;;;1.23;;
21820;SDS011;11073;48.586;12.066;2022-07-12T07:05:08;1.85;;;1.45;;
21820;SDS011;11073;48.586;12.066;2022-07-12T07:07:38;1.60;;;0.80;;
21820;SDS011;11073;48.586;12.066;2022-07-12T07:10:07;1.35;;;0.90;;
21820;SDS011;11073;48.586;12.066;2022-07-12T07:12:37;1.00;;;0.90;;
21820;SDS011;11073;48.586;12.066;2022-07-12T07:15:05;1.48;;;0.90;;
21820;SDS011;11073;48.586;12.066;2022-07-12T07:17:35;1.13;;;1.00;;
21820;SDS011;11073;48.586;12.066;2022-07-12T07:20:05;1.63;;;0.80;;
21820;SDS011;11073;48.586;12.066;2022-07-12T07:22:35;3.53;;;0.90;;
21820;SDS011;11073;48.586;12.066;2022-07-12T07:25:04;1.35;;;0.95;;
21820;SDS011;11073;48.586;12.066;2022-07-12T07:27:33;2.35;;;1.13;;
21820;SDS011;11073;48.586;12.066;2022-07-12T07:30:02;1.33;;;0.90;;
21820;SDS011;11073;48.586;12.066;2022-07-12T07:32:51;0.77;;;0.60;;
21820;SDS011;11073;48.586;12.066;2022-07-12T07:35:24;0.80;;;0.70;;
21820;SDS011;11073;48.586;12.066;2022-07-12T07:37:53;1.98;;;0.90;;
21820;SDS011;11073;48.586;12.066;2022-07-12T07:40:21;0.80;;;0.80;;
21820;SDS011;11073;48.586;12.066;2022-07-12T07:42:50;1.10;;;0.90;;
21820;SDS011;11073;48.586;12.066;2022-07-12T07:45:21;1.10;;;0.85;;
21820;SDS011;11073;48.586;12.066;2022-07-12T07:47:50;0.90;;;0.73;;
21820;SDS011;11073;48.586;12.066;2022-07-12T07:50:40;0.60;;;0.55;;
21820;SDS011;11073;48.586;12.066;2022-07-12T07:53:10;1.08;;;0.80;;
21820;SDS011;11073;48.586;12.066;2022-07-12T07:55:38;1.15;;;0.70;;
21820;SDS011;11073;48.586;12.066;2022-07-12T07:58:07;0.60;;;0.60;;
21820;SDS011;11073;48.586;12.066;2022-07-12T08:00:36;0.98;;;0.70;;
21820;SDS011;11073;48.586;12.066;2022-07-12T08:03:05;1.20;;;0.82;;
21820;SDS011;11073;48.586;12.066;2022-07-12T08:05:34;2.55;;;0.70;;
21820;SDS011;11073;48.586;12.066;2022-07-12T08:08:04;0.63;;;0.57;;
21820;SDS011;11073;48.586;12.066;2022-07-12T08:10:33;1.10;;;0.75;;
21820;SDS011;11073;48.586;12.066;2022-07-12T08:13:02;1.33;;;0.82;;
21820;SDS011;11073;48.586;12.066;2022-07-12T08:15:31;1.25;;;0.80;;
21820;SDS011;11073;48.586;12.066;2022-07-12T08:18:00;2.28;;;1.10;;
21820;SDS011;11073;48.586;12.066;2022-07-12T08:20:31;2.47;;;1.30;;
21820;SDS011;11073;48.586;12.066;2022-07-12T08:23:17;1.85;;;1.20;;
21820;SDS011;11073;48.586;12.066;2022-07-12T08:25:46;1.02;;;0.90;;
21820;SDS011;11073;48.586;12.066;2022-07-12T08:28:15;2.45;;;1.10;;
21820;SDS011;11073;48.586;12.066;2022-07-12T08:30:43;5.38;;;1.20;;
21820;SDS011;11073;48.586;12.066;2022-07-12T08:33:14;1.88;;;1.23;;
21820;SDS011;11073;48.586;12.066;2022-07-12T08:35:43;1.55;;;1.20;;
21820;SDS011;11073;48.586;12.066;2022-07-12T08:38:11;3.17;;;1.60;;
21820;SDS011;11073;48.586;12.066;2022-07-12T08:40:44;2.35;;;1.30;;
21820;SDS011;11073;48.586;12.066;2022-07-12T08:43:12;2.53;;;1.50;;
21820;SDS011;11073;48.586;12.066;2022-07-12T08:45:42;1.52;;;1.33;;
21820;SDS011;11073;48.586;12.066;2022-07-12T08:48:10;1.20;;;1.10;;
21820;SDS011;11073;48.586;12.066;2022-07-12T08:50:39;1.40;;;1.30;;
21820;SDS011;11073;48.586;12.066;2022-07-12T08:53:11;2.60;;;1.23;;
21820;SDS011;11073;48.586;12.066;2022-07-12T08:55:41;0.93;;;0.90;;
21820;SDS011;11073;48.586;12.066;2022-07-12T08:58:17;2.75;;;1.10;;
21820;SDS011;11073;48.586;12.066;2022-07-12T09:00:46;1.52;;;1.35;;
21820;SDS011;11073;48.586;12.066;2022-07-12T09:03:17;1.45;;;1.15;;
21820;SDS011;11073;48.586;12.066;2022-07-12T09:05:47;1.75;;;1.27;;
21820;SDS011;11073;48.586;12.066;2022-07-12T09:08:26;2.17;;;1.48;;
21820;SDS011;11073;48.586;12.066;2022-07-12T09:10:57;4.30;;;1.40;;
21820;SDS011;11073;48.586;12.066;2022-07-12T09:16:21;5.47;;;1.63;;
21820;SDS011;11073;48.586;12.066;2022-07-12T09:18:51;2.85;;;1.40;;
21820;SDS011;11073;48.586;12.066;2022-07-12T09:21:48;1.63;;;1.52;;
21820;SDS011;11073;48.586;12.066;2022-07-12T09:24:18;1.30;;;1.20;;
21820;SDS011;11073;48.586;12.066;2022-07-12T09:26:48;1.42;;;1.20;;
21820;SDS011;11073;48.586;12.066;2022-07-12T09:29:18;1.13;;;1.00;;
21820;SDS011;11073;48.586;12.066;2022-07-12T09:31:49;1.42;;;1.30;;
21820;SDS011;11073;48.586;12.066;2022-07-12T09:34:36;1.20;;;1.10;;
21820;SDS011;11073;48.586;12.066;2022-07-12T09:37:23;3.25;;;1.30;;
21820;SDS011;11073;48.586;12.066;2022-07-12T09:39:54;3.22;;;1.27;;
21820;SDS011;11073;48.586;12.066;2022-07-12T09:42:23;0.90;;;0.90;;
21820;SDS011;11073;48.586;12.066;2022-07-12T09:44:56;1.60;;;1.10;;
21820;SDS011;11073;48.586;12.066;2022-07-12T09:47:27;1.63;;;1.20;;
21820;SDS011;11073;48.586;12.066;2022-07-12T09:49:55;1.02;;;0.90;;
21820;SDS011;11073;48.586;12.066;2022-07-12T09:52:25;2.00;;;1.10;;
21820;SDS011;11073;48.586;12.066;2022-07-12T09:54:55;1.77;;;1.20;;
21820;SDS011;11073;48.586;12.066;2022-07-12T09:57:25;1.10;;;1.00;;
21820;SDS011;11073;48.586;12.066;2022-07-12T09:59:57;0.98;;;0.90;;
21820;SDS011;11073;48.586;12.066;2022-07-12T10:02:37;1.10;;;1.00;;
21820;SDS011;11073;48.586;12.066;2022-07-12T10:05:07;0.60;;;0.60;;
21820;SDS011;11073;48.586;12.066;2022-07-12T10:07:36;1.45;;;0.90;;
21820;SDS011;11073;48.586;12.066;2022-07-12T10:10:06;0.98;;;0.80;;
21820;SDS011;11073;48.586;12.066;2022-07-12T10:12:39;2.15;;;0.90;;
21820;SDS011;11073;48.586;12.066;2022-07-12T10:15:15;1.38;;;0.90;;
21820;SDS011;11073;48.586;12.066;2022-07-12T10:17:51;2.03;;;1.00;;
21820;SDS011;11073;48.586;12.066;2022-07-12T10:20:23;0.95;;;0.75;;
21820;SDS011;11073;48.586;12.066;2022-07-12T10:22:54;0.70;;;0.70;;
21820;SDS011;11073;48.586;12.066;2022-07-12T10:25:30;0.98;;;0.88;;
21820;SDS011;11073;48.586;12.066;2022-07-12T10:28:00;2.15;;;0.90;;
21820;SDS011;11073;48.586;12.066;2022-07-12T10:30:30;0.98;;;0.85;;
21820;SDS011;11073;48.586;12.066;2022-07-12T10:33:16;2.92;;;0.80;;
21820;SDS011;11073;48.586;12.066;2022-07-12T10:36:00;0.77;;;0.70;;
21820;SDS011;11073;48.586;12.066;2022-07-12T10:38:41;0.85;;;0.70;;
21820;SDS011;11073;48.586;12.066;2022-07-12T10:41:16;1.05;;;0.90;;
21820;SDS011;11073;48.586;12.066;2022-07-12T10:43:46;0.85;;;0.63;;
21820;SDS011;11073;48.586;12.066;2022-07-12T10:46:35;1.00;;;0.70;;
21820;SDS011;11073;48.586;12.066;2022-07-12T10:49:23;1.05;;;0.75;;
21820;SDS011;11073;48.586;12.066;2022-07-12T10:52:12;1.00;;;0.80;;
21820;SDS011;11073;48.586;12.066;2022-07-12T10:54:42;0.73;;;0.65;;
21820;SDS011;11073;48.586;12.066;2022-07-12T11:00:06;2.63;;;0.90;;
21820;SDS011;11073;48.586;12.066;2022-07-12T11:02:38;1.95;;;0.90;;
21820;SDS011;11073;48.586;12.066;2022-07-12T11:05:07;2.35;;;0.70;;
21820;SDS011;11073;48.586;12.066;2022-07-12T11:07:36;3.00;;;0.82;;
21820;SDS011;11073;48.586;12.066;2022-07-12T11:10:06;1.05;;;0.70;;
21820;SDS011;11073;48.586;12.066;2022-07-12T11:12:35;1.00;;;0.80;;
21820;SDS011;11073;48.586;12.066;2022-07-12T11:15:04;0.95;;;0.70;;
21820;SDS011;11073;48.586;12.066;2022-07-12T11:17:33;1.10;;;0.60;;
21820;SDS011;11073;48.586;12.066;2022-07-12T11:20:07;1.00;;;0.68;;
21820;SDS011;11073;48.586;12.066;2022-07-12T11:22:38;1.95;;;0.80;;
21820;SDS011;11073;48.586;12.066;2022-07-12T11:25:08;1.48;;;0.70;;
21820;SDS011;11073;48.586;12.066;2022-07-12T11:27:38;2.47;;;0.85;;
21820;SDS011;11073;48.586;12.066;2022-07-12T11:30:08;3.03;;;1.10;;
21820;SDS011;11073;48.586;12.066;2022-07-12T11:32:38;1.38;;;0.77;;
21820;SDS011;11073;48.586;12.066;2022-07-12T11:35:19;1.70;;;0.70;;
21820;SDS011;11073;48.586;12.066;2022-07-12T11:37:49;0.82;;;0.80;;
21820;SDS011;11073;48.586;12.066;2022-07-12T11:40:25;0.90;;;0.75;;
21820;SDS011;11073;48.586;12.066;2022-07-12T11:42:56;1.42;;;0.70;;
21820;SDS011;11073;48.586;12.066;2022-07-12T11:45:27;1.85;;;0.60;;
21820;SDS011;11073;48.586;12.066;2022-07-12T11:47:57;1.02;;;0.80;;
21820;SDS011;11073;48.586;12.066;2022-07-12T11:50:30;0.80;;;0.52;;
21820;SDS011;11073;48.586;12.066;2022-07-12T11:53:02;2.25;;;0.82;;
21820;SDS011;11073;48.586;12.066;2022-07-12T11:55:31;1.55;;;0.80;;
21820;SDS011;11073;48.586;12.066;2022-07-12T11:58:11;0.70;;;0.70;;
21820;SDS011;11073;48.586;12.066;2022-07-12T12:00:40;1.50;;;0.70;;
21820;SDS011;11073;48.586;12.066;2022-07-12T12:03:09;2.78;;;1.20;;
21820;SDS011;11073;48.586;12.066;2022-07-12T12:05:40;2.40;;;0.80;;
21820;SDS011;11073;48.586;12.066;2022-07-12T12:08:09;0.88;;;0.70;;
21820;SDS011;11073;48.586;12.066;2022-07-12T12:10:40;1.85;;;0.82;;
21820;SDS011;11073;48.586;12.066;2022-07-12T12:13:13;0.80;;;0.70;;
21820;SDS011;11073;48.586;12.066;2022-07-12T12:15:48;1.17;;;0.63;;
21820;SDS011;11073;48.586;12.066;2022-07-12T12:18:29;0.70;;;0.70;;
21820;SDS011;11073;48.586;12.066;2022-07-12T12:21:01;1.08;;;0.90;;
21820;SDS011;11073;48.586;12.066;2022-07-12T12:23:31;1.10;;;0.65;;
21820;SDS011;11073;48.586;12.066;2022-07-12T12:26:13;1.65;;;0.63;;
21820;SDS011;11073;48.586;12.066;2022-07-12T12:28:44;1.27;;;0.70;;
21820;SDS011;11073;48.586;12.066;2022-07-12T12:31:15;1.63;;;0.60;;
21820;SDS011;11073;48.586;12.066;2022-07-12T12:33:45;0.65;;;0.65;;
21820;SDS011;11073;48.586;12.066;2022-07-12T12:36:17;1.20;;;0.75;;
21820;SDS011;11073;48.586;12.066;2022-07-12T12:38:48;0.80;;;0.70;;
21820;SDS011;11073;48.586;12.066;2022-07-12T12:41:20;0.98;;;0.60;;
21820;SDS011;11073;48.586;12.066;2022-07-12T12:43:57;0.60;;;0.60;;
21820;SDS011;11073;48.586;12.066;2022-07-12T12:52:21;2.20;;;0.60;;
21820;SDS011;11073;48.586;12.066;2022-07-12T12:54:50;1.95;;;0.70;;
21820;SDS011;11073;48.586;12.066;2022-07-12T12:57:19;0.60;;;0.60;;
21820;SDS011;11073;48.586;12.066;2022-07-12T12:59:48;1.65;;;0.63;;
21820;SDS011;11073;48.586;12.066;2022-07-12T13:02:17;0.57;;;0.57;;
21820;SDS011;11073;48.586;12.066;2022-07-12T13:04:46;2.83;;;0.60;;
21820;SDS011;11073;48.586;12.066;2022-07-12T13:07:14;0.90;;;0.63;;
21820;SDS011;11073;48.586;12.066;2022-07-12T13:09:45;1.58;;;0.70;;
21820;SDS011;11073;48.586;12.066;2022-07-12T13:12:13;0.88;;;0.63;;
21820;SDS011;11073;48.586;12.066;2022-07-12T13:14:42;2.45;;;0.70;;
21820;SDS011;11073;48.586;12.066;2022-07-12T13:17:11;0.85;;;0.60;;
21820;SDS011;11073;48.586;12.066;2022-07-12T13:19:39;1.42;;;0.55;;
21820;SDS011;11073;48.586;12.066;2022-07-12T13:22:08;2.60;;;0.60;;
21820;SDS011;11073;48.586;12.066;2022-07-12T13:24:37;1.02;;;0.90;;
21820;SDS011;11073;48.586;12.066;2022-07-12T13:27:07;0.63;;;0.60;;
21820;SDS011;11073;48.586;12.066;2022-07-12T13:29:36;0.50;;;0.50;;
21820;SDS011;11073;48.586;12.066;2022-07-12T13:32:04;1.98;;;0.55;;
21820;SDS011;11073;48.586;12.066;2022-07-12T13:34:34;0.90;;;0.80;;
21820;SDS011;11073;48.586;12.066;2022-07-12T13:37:03;0.95;;;0.60;;
21820;SDS011;11073;48.586;12.066;2022-07-12T13:39:32;1.77;;;0.82;;
21820;SDS011;11073;48.586;12.066;2022-07-12T13:42:20;2.45;;;0.70;;
21820;SDS011;11073;48.586;12.066;2022-07-12T13:44:48;0.50;;;0.50;;
21820;SDS011;11073;48.586;12.066;2022-07-12T13:47:19;0.57;;;0.57;;
21820;SDS011;11073;48.586;12.066;2022-07-12T13:49:48;1.95;;;0.60;;
21820;SDS011;11073;48.586;12.066;2022-07-12T13:52:24;0.93;;;0.60;;
21820;SDS011;11073;48.586;12.066;2022-07-12T13:54:53;2.53;;;0.77;;
21820;SDS011;11073;48.586;12.066;2022-07-12T13:57:22;1.10;;;0.70;;
21820;SDS011;11073;48.586;12.066;2022-07-12T13:59:51;2.80;;;0.90;;
21820;SDS011;11073;48.586;12.066;2022-07-12T14:02:20;0.68;;;0.60;;
21820;SDS011;11073;48.586;12.066;2022-07-12T14:04:50;1.70;;;0.70;;
21820;SDS011;11073;48.586;12.066;2022-07-12T14:07:19;0.60;;;0.60;;
21820;SDS011;11073;48.586;12.066;2022-07-12T14:09:48;0.80;;;0.70;;
21820;SDS011;11073;48.586;12.066;2022-07-12T14:12:17;0.65;;;0.65;;
21820;SDS011;11073;48.586;12.066;2022-07-12T14:14:47;3.05;;;0.85;;
21820;SDS011;11073;48.586;12.066;2022-07-12T14:17:33;1.20;;;0.70;;
21820;SDS011;11073;48.586;12.066;2022-07-12T14:20:02;2.78;;;0.90;;
21820;SDS011;11073;48.586;12.066;2022-07-12T14:22:31;1.50;;;0.80;;
21820;SDS011;11073;48.586;12.066;2022-07-12T14:25:00;1.10;;;0.73;;
21820;SDS011;11073;48.586;12.066;2022-07-12T14:27:31;1.88;;;0.60;;
21820;SDS011;11073;48.586;12.066;2022-07-12T14:30:01;2.08;;;0.60;;
21820;SDS011;11073;48.586;12.066;2022-07-12T14:32:33;0.80;;;0.60;;
21820;SDS011;11073;48.586;12.066;2022-07-12T14:35:02;0.82;;;0.50;;
21820;SDS011;11073;48.586;12.066;2022-07-12T14:37:32;0.60;;;0.60;;
21820;SDS011;11073;48.586;12.066;2022-07-12T14:40:02;1.80;;;0.50;;
21820;SDS011;11073;48.586;12.066;2022-07-12T14:42:31;1.52;;;0.60;;
21820;SDS011;11073;48.586;12.066;2022-07-12T14:45:01;1.77;;;0.65;;
21820;SDS011;11073;48.586;12.066;2022-07-12T14:47:30;2.35;;;0.60;;
21820;SDS011;11073;48.586;12.066;2022-07-12T14:49:59;0.80;;;0.60;;
21820;SDS011;11073;48.586;12.066;2022-07-12T14:52:29;1.20;;;0.60;;
21820;SDS011;11073;48.586;12.066;2022-07-12T14:54:57;2.80;;;0.70;;
21820;SDS011;11073;48.586;12.066;2022-07-12T14:57:26;1.40;;;0.60;;
21820;SDS011;11073;48.586;12.066;2022-07-12T14:59:55;0.38;;;0.38;;
21820;SDS011;11073;48.586;12.066;2022-07-12T15:02:25;1.10;;;0.60;;
21820;SDS011;11073;48.586;12.066;2022-07-12T15:04:55;1.20;;;0.60;;